createdAt,value
2023-02-19T00:01:36.017Z,5.06
2023-02-19T00:04:04.703Z,5.05
2023-02-19T00:06:32.302Z,5.05
2023-02-19T00:09:05.253Z,5.05
2023-02-19T00:11:33.536Z,5.03
2023-02-19T00:14:00.740Z,4.99
2023-02-19T00:16:36.121Z,4.98
2023-02-19T00:19:05.834Z,4.97
2023-02-19T00:21:34.606Z,4.96
2023-02-19T00:24:03.204Z,4.96
2023-02-19T00:26:30.263Z,5.01
2023-02-19T00:28:57.584Z,5.11
2023-02-19T00:31:25.216Z,5.21
2023-02-19T00:33:55.169Z,5.21
2023-02-19T00:36:23.060Z,5.24
2023-02-19T00:38:50.210Z,5.22
2023-02-19T00:41:21.363Z,5.23
2023-02-19T00:43:56.904Z,5.26
2023-02-19T00:46:28.556Z,5.23
2023-02-19T00:48:56.014Z,5.20
2023-02-19T00:51:25.113Z,5.17
2023-02-19T00:53:52.359Z,5.12
2023-02-19T00:56:20.231Z,5.06
2023-02-19T00:58:47.129Z,5.04
2023-02-19T01:01:14.080Z,5.00
2023-02-19T01:03:40.961Z,4.96
2023-02-19T01:06:09.428Z,4.92
2023-02-19T01:08:36.764Z,4.86
2023-02-19T01:11:05.486Z,4.79
2023-02-19T01:13:33.150Z,4.77
2023-02-19T01:16:04.876Z,4.75
2023-02-19T01:18:33.283Z,4.73
2023-02-19T01:21:04.675Z,4.71
2023-02-19T01:23:36.297Z,4.71
2023-02-19T01:26:05.745Z,4.78
2023-02-19T01:28:32.879Z,4.88
2023-02-19T01:31:03.841Z,4.96
2023-02-19T01:33:31.259Z,4.98
2023-02-19T01:35:58.610Z,4.95
2023-02-19T01:38:26.119Z,4.96
2023-02-19T01:42:44.184Z,4.72
2023-02-19T01:45:32.139Z,4.88
2023-02-19T01:48:21.568Z,4.88
2023-02-19T01:51:02.692Z,4.83
2023-02-19T01:53:32.728Z,4.77
2023-02-19T01:56:01.106Z,4.68
2023-02-19T01:58:31.658Z,4.71
2023-02-19T02:01:01.621Z,4.72
2023-02-19T02:03:29.810Z,4.71
2023-02-19T02:06:03.222Z,4.70
2023-02-19T02:08:50.735Z,4.69
2023-02-19T02:11:21.779Z,4.70
2023-02-19T02:13:52.245Z,4.76
2023-02-19T02:16:43.853Z,4.85
2023-02-19T02:19:41.088Z,4.93
2023-02-19T02:22:19.403Z,4.96
2023-02-19T02:24:53.719Z,4.89
2023-02-19T02:28:06.738Z,4.86
2023-02-19T02:30:49.157Z,4.89
2023-02-19T02:33:21.971Z,4.86
2023-02-19T02:36:05.884Z,4.81
2023-02-19T02:38:40.302Z,4.75
2023-02-19T02:41:08.846Z,4.72
2023-02-19T02:43:38.400Z,4.63
2023-02-19T02:46:06.695Z,4.63
2023-02-19T02:48:54.083Z,4.65
2023-02-19T02:51:42.005Z,4.65
2023-02-19T02:54:37.956Z,4.62
2023-02-19T02:57:09.728Z,4.59
2023-02-19T02:59:42.392Z,4.56
2023-02-19T03:02:23.049Z,4.54
2023-02-19T03:05:23.700Z,4.60
2023-02-19T03:08:00.388Z,4.71
2023-02-19T03:10:37.676Z,4.79
2023-02-19T03:13:28.095Z,4.78
2023-02-19T03:16:21.281Z,4.73
2023-02-19T03:19:10.536Z,4.67
2023-02-19T03:21:39.895Z,4.58
2023-02-19T03:24:29.565Z,4.49
2023-02-19T03:26:59.477Z,4.41
2023-02-19T03:29:30.132Z,4.35
2023-02-19T03:32:15.841Z,4.28
2023-02-19T03:34:49.327Z,4.21
2023-02-19T03:37:25.352Z,4.16
2023-02-19T03:39:53.940Z,4.11
2023-02-19T03:42:30.112Z,4.05
2023-02-19T03:45:34.025Z,4.01
2023-02-19T03:48:34.807Z,4.04
2023-02-19T03:51:15.754Z,4.12
2023-02-19T03:53:53.645Z,4.16
2023-02-19T03:56:32.553Z,4.19
2023-02-19T03:59:30.330Z,4.19
2023-02-19T04:02:05.521Z,4.14
2023-02-19T04:05:05.486Z,4.08
2023-02-19T04:07:37.140Z,4.01
2023-02-19T04:10:05.855Z,3.96
2023-02-19T04:12:39.532Z,3.89
2023-02-19T04:15:10.853Z,3.84
2023-02-19T04:17:41.489Z,3.85
2023-02-19T04:20:10.529Z,3.90
2023-02-19T04:22:38.885Z,3.94
2023-02-19T04:25:07.737Z,3.96
2023-02-19T04:27:38.187Z,3.92
2023-02-19T04:30:12.923Z,3.89
2023-02-19T04:32:41.924Z,3.87
2023-02-19T04:35:12.455Z,3.85
2023-02-19T04:37:42.673Z,3.75
2023-02-19T04:40:10.999Z,3.65
2023-02-19T04:42:39.838Z,3.62
2023-02-19T04:45:08.423Z,3.61
2023-02-19T04:47:37.955Z,3.56
2023-02-19T04:50:06.334Z,3.50
2023-02-19T04:52:35.812Z,3.51
2023-02-19T04:55:04.600Z,3.56
2023-02-19T04:57:33.189Z,3.55
2023-02-19T05:00:02.178Z,3.57
2023-02-19T05:02:33.448Z,3.61
2023-02-19T05:05:01.962Z,3.61
2023-02-19T05:07:30.706Z,3.60
2023-02-19T05:09:59.894Z,3.58
2023-02-19T05:12:30.220Z,3.57
2023-02-19T05:14:59.837Z,3.59
2023-02-19T05:17:28.412Z,3.58
2023-02-19T05:20:00.476Z,3.52
2023-02-19T05:22:30.086Z,3.48
2023-02-19T05:25:02.566Z,3.43
2023-02-19T05:27:31.376Z,3.39
2023-02-19T05:29:59.679Z,3.34
2023-02-19T05:32:28.314Z,3.31
2023-02-19T05:34:56.690Z,3.36
2023-02-19T05:37:24.868Z,3.44
2023-02-19T05:39:53.107Z,3.53
2023-02-19T05:42:21.320Z,3.62
2023-02-19T05:44:53.192Z,3.68
2023-02-19T05:47:21.978Z,3.68
2023-02-19T05:49:50.243Z,3.69
2023-02-19T05:52:18.931Z,3.70
2023-02-19T05:54:46.953Z,3.70
2023-02-19T05:57:15.140Z,3.69
2023-02-19T05:59:43.454Z,3.68
2023-02-19T06:02:12.550Z,3.68
2023-02-19T06:04:40.840Z,3.68
2023-02-19T06:07:09.104Z,3.73
2023-02-19T06:09:37.507Z,3.83
2023-02-19T06:12:05.963Z,3.91
2023-02-19T06:14:35.282Z,3.98
2023-02-19T06:17:03.744Z,3.99
2023-02-19T06:19:31.722Z,3.99
2023-02-19T06:22:00.090Z,3.98
2023-02-19T06:24:28.180Z,3.98
2023-02-19T06:26:56.646Z,3.99
2023-02-19T06:29:25.132Z,3.99
2023-02-19T06:31:53.637Z,3.99
2023-02-19T06:34:21.995Z,3.99
2023-02-19T06:36:50.988Z,3.99
2023-02-19T06:39:19.060Z,4.03
2023-02-19T06:41:47.467Z,4.10
2023-02-19T06:44:15.819Z,4.18
2023-02-19T06:46:47.191Z,4.23
2023-02-19T06:49:15.502Z,4.25
2023-02-19T06:51:43.722Z,4.25
2023-02-19T06:54:11.759Z,4.29
2023-02-19T06:56:40.599Z,4.30
2023-02-19T06:59:10.907Z,4.29
2023-02-19T07:01:39.318Z,4.27
2023-02-19T07:04:08.233Z,4.26
2023-02-19T07:06:36.946Z,4.32
2023-02-19T07:09:06.138Z,4.39
2023-02-19T07:11:36.026Z,4.49
2023-02-19T07:14:07.915Z,4.56
2023-02-19T07:16:37.282Z,4.60
2023-02-19T07:19:05.729Z,4.65
2023-02-19T07:21:37.917Z,4.71
2023-02-19T07:24:06.736Z,4.77
2023-02-19T07:26:35.161Z,4.82
2023-02-19T07:29:03.643Z,4.86
2023-02-19T07:31:31.970Z,4.90
2023-02-19T07:34:00.614Z,5.04
2023-02-19T07:36:29.260Z,5.17
2023-02-19T07:38:57.981Z,5.30
2023-02-19T07:41:26.573Z,5.37
2023-02-19T07:43:57.876Z,5.29
2023-02-19T07:46:25.955Z,5.21
2023-02-19T07:49:00.131Z,5.17
2023-02-19T07:51:30.333Z,5.15
2023-02-19T07:54:01.564Z,5.12
2023-02-19T07:56:30.563Z,5.10
2023-02-19T07:59:00.471Z,5.11
2023-02-19T08:01:48.312Z,5.11
2023-02-19T08:04:16.523Z,5.22
2023-02-19T08:06:45.179Z,5.30
2023-02-19T08:09:13.859Z,5.36
2023-02-19T08:12:00.875Z,5.45
2023-02-19T08:14:29.455Z,5.50
2023-02-19T08:16:57.889Z,5.55
2023-02-19T08:19:26.445Z,5.58
2023-02-19T08:21:55.104Z,5.59
2023-02-19T08:24:28.915Z,5.58
2023-02-19T08:26:57.406Z,5.54
2023-02-19T08:29:26.213Z,5.58
2023-02-19T08:31:54.711Z,5.69
2023-02-19T08:34:23.042Z,5.79
2023-02-19T08:36:52.229Z,5.88
2023-02-19T08:39:21.225Z,5.93
2023-02-19T08:41:51.224Z,5.91
2023-02-19T08:44:19.761Z,5.81
2023-02-19T08:46:53.459Z,5.81
2023-02-19T08:49:25.667Z,5.85
2023-02-19T08:51:53.833Z,5.87
2023-02-19T08:54:22.047Z,5.81
2023-02-19T08:56:50.147Z,5.72
2023-02-19T08:59:20.461Z,5.71
2023-02-19T09:01:49.134Z,5.72
2023-02-19T09:04:17.427Z,5.71
2023-02-19T09:06:45.893Z,5.72
2023-02-19T09:09:14.172Z,5.80
2023-02-19T09:11:42.753Z,5.83
2023-02-19T09:14:11.925Z,5.84
2023-02-19T09:16:40.947Z,5.87
2023-02-19T09:19:09.424Z,5.88
2023-02-19T09:21:37.717Z,5.82
2023-02-19T09:24:07.103Z,5.77
2023-02-19T09:26:37.126Z,5.73
2023-02-19T09:29:06.627Z,5.66
2023-02-19T09:31:35.378Z,5.55
2023-02-19T09:34:03.822Z,5.49
2023-02-19T09:36:33.565Z,5.46
2023-02-19T09:39:02.225Z,5.44
2023-02-19T09:41:32.216Z,5.46
2023-02-19T09:44:02.337Z,5.48
2023-02-19T09:46:32.870Z,5.46
2023-02-19T09:49:13.862Z,5.49
2023-02-19T09:51:45.286Z,5.58
2023-02-19T09:54:23.324Z,5.62
2023-02-19T09:56:52.188Z,5.57
2023-02-19T09:59:23.935Z,5.56
2023-02-19T10:02:03.694Z,5.53
2023-02-19T10:04:31.865Z,5.50
2023-02-19T10:07:03.849Z,5.49
2023-02-19T10:09:31.964Z,5.55
2023-02-19T10:12:00.615Z,5.64
2023-02-19T10:14:34.294Z,5.66
2023-02-19T10:17:04.316Z,5.69
2023-02-19T10:19:34.118Z,5.72
2023-02-19T10:22:02.980Z,5.78
2023-02-19T10:24:31.186Z,5.84
2023-02-19T10:26:59.258Z,5.88
2023-02-19T10:29:28.067Z,5.90
2023-02-19T10:32:24.338Z,5.89
2023-02-19T10:35:15.611Z,5.87
2023-02-19T10:37:47.976Z,5.90
2023-02-19T10:40:23.538Z,6.00
2023-02-19T10:42:59.389Z,6.10
2023-02-19T10:45:30.516Z,6.18
2023-02-19T10:47:58.895Z,6.21
2023-02-19T10:50:39.461Z,6.23
2023-02-19T10:53:08.962Z,6.24
2023-02-19T10:55:38.509Z,6.21
2023-02-19T10:58:27.856Z,6.21
2023-02-19T11:01:14.766Z,6.21
2023-02-19T11:03:43.341Z,6.19
2023-02-19T11:06:12.026Z,6.19
2023-02-19T11:08:47.851Z,6.23
2023-02-19T11:11:27.321Z,6.18
2023-02-19T11:13:57.258Z,6.14
2023-02-19T11:16:43.580Z,6.14
2023-02-19T11:19:43.968Z,6.18
2023-02-19T11:22:29.654Z,6.20
2023-02-19T11:25:10.624Z,6.20
2023-02-19T11:28:09.874Z,6.23
2023-02-19T11:30:45.272Z,6.30
2023-02-19T11:33:16.918Z,6.34
2023-02-19T11:35:45.350Z,6.33
2023-02-19T11:38:17.180Z,6.30
2023-02-19T11:41:11.325Z,6.26
2023-02-19T11:43:56.425Z,6.19
2023-02-19T11:46:49.825Z,6.20
2023-02-19T11:49:40.460Z,6.22
2023-02-19T11:52:20.663Z,6.10
2023-02-19T11:55:16.472Z,6.01
2023-02-19T11:57:53.151Z,6.05
2023-02-19T12:00:26.404Z,6.02
2023-02-19T12:03:26.980Z,6.08
2023-02-19T12:06:01.459Z,6.09
2023-02-19T12:09:02.030Z,6.07
2023-02-19T12:11:36.562Z,6.07
2023-02-19T12:14:20.005Z,6.09
2023-02-19T12:16:58.627Z,6.10
2023-02-19T12:19:27.091Z,6.09
2023-02-19T12:22:17.171Z,6.10
2023-02-19T12:24:51.467Z,6.13
2023-02-19T12:27:54.828Z,6.18
2023-02-19T12:30:28.738Z,6.23
2023-02-19T12:33:18.626Z,6.25
2023-02-19T12:35:49.824Z,6.24
2023-02-19T12:38:23.718Z,6.24
2023-02-19T12:41:36.762Z,6.26
2023-02-19T12:44:17.427Z,6.25
2023-02-19T12:46:57.637Z,6.25
2023-02-19T12:49:31.428Z,6.26
2023-02-19T12:52:02.335Z,6.17
2023-02-19T12:54:44.623Z,6.11
2023-02-19T12:57:15.880Z,6.07
2023-02-19T13:00:09.204Z,6.05
2023-02-19T13:02:40.605Z,6.04
2023-02-19T13:05:31.570Z,6.03
2023-02-19T13:08:45.333Z,6.04
2023-02-19T13:11:37.632Z,6.05
2023-02-19T13:14:32.330Z,6.04
2023-02-19T13:17:03.148Z,6.06
2023-02-19T13:19:34.854Z,6.10
2023-02-19T13:22:28.072Z,6.11
2023-02-19T13:24:58.524Z,6.10
2023-02-19T13:27:36.978Z,6.13
2023-02-19T13:30:24.176Z,6.13
2023-02-19T13:32:59.376Z,6.12
2023-02-19T13:35:55.571Z,6.13
2023-02-19T13:38:24.392Z,6.14
2023-02-19T13:41:00.205Z,6.14
2023-02-19T13:43:43.043Z,6.15
2023-02-19T13:46:12.424Z,6.14
2023-02-19T13:48:41.579Z,6.13
2023-02-19T13:51:13.165Z,6.11
2023-02-19T13:53:45.742Z,6.06
2023-02-19T13:56:35.351Z,6.01
2023-02-19T14:00:54.852Z,5.80
2023-02-19T14:03:28.175Z,5.88
2023-02-19T14:06:01.945Z,5.85
2023-02-19T14:09:28.787Z,5.83
2023-02-19T14:12:06.337Z,5.83
2023-02-19T14:14:53.441Z,5.81
2023-02-19T14:17:57.615Z,5.80
2023-02-19T14:20:35.430Z,5.80
2023-02-19T14:23:24.354Z,5.78
2023-02-19T14:25:57.365Z,5.78
2023-02-19T14:28:46.780Z,5.77
2023-02-19T14:31:38.137Z,5.78
2023-02-19T14:34:18.706Z,5.78
2023-02-19T14:36:53.577Z,5.80
2023-02-19T14:39:25.314Z,5.81
2023-02-19T14:42:00.856Z,5.82
2023-02-19T14:44:30.847Z,5.83
2023-02-19T14:47:19.322Z,5.80
2023-02-19T14:49:53.128Z,5.74
2023-02-19T14:52:41.270Z,5.71
2023-02-19T14:55:16.027Z,5.71
2023-02-19T14:57:47.967Z,5.67
2023-02-19T15:00:22.506Z,5.60
2023-02-19T15:02:51.787Z,5.55
2023-02-19T15:05:28.366Z,5.51
2023-02-19T15:07:59.031Z,5.48
2023-02-19T15:10:28.959Z,5.46
2023-02-19T15:12:59.285Z,5.41
2023-02-19T15:15:29.347Z,5.37
2023-02-19T15:17:57.428Z,5.36
2023-02-19T15:20:28.459Z,5.35
2023-02-19T15:22:58.638Z,5.34
2023-02-19T15:25:38.124Z,5.32
2023-02-19T15:28:28.222Z,5.30
2023-02-19T15:30:57.905Z,5.30
2023-02-19T15:33:27.452Z,5.27
2023-02-19T15:35:57.637Z,5.25
2023-02-19T15:38:25.934Z,5.23
2023-02-19T15:40:56.172Z,5.22
2023-02-19T15:43:25.658Z,5.20
2023-02-19T15:45:56.767Z,5.18
2023-02-19T15:48:32.337Z,5.16
2023-02-19T15:51:08.428Z,5.15
2023-02-19T15:53:40.680Z,5.14
2023-02-19T15:56:21.044Z,5.12
2023-02-19T15:58:56.485Z,5.11
2023-02-19T16:01:28.909Z,5.08
2023-02-19T16:03:57.220Z,5.07
2023-02-19T16:06:26.649Z,5.06
2023-02-19T16:09:04.849Z,5.04
2023-02-19T16:11:37.425Z,5.02
2023-02-19T16:14:19.435Z,5.02
2023-02-19T16:16:48.830Z,5.00
2023-02-19T16:19:28.586Z,4.99
2023-02-19T16:21:57.261Z,4.99
2023-02-19T16:24:31.579Z,5.02
2023-02-19T16:27:06.449Z,4.96
2023-02-19T16:29:35.230Z,4.94
2023-02-19T16:32:05.556Z,4.93
2023-02-19T16:34:41.276Z,4.93
2023-02-19T16:37:34.524Z,4.93
2023-02-19T16:40:08.764Z,4.93
2023-02-19T16:42:49.835Z,4.92
2023-02-19T16:45:18.624Z,4.91
2023-02-19T16:47:51.405Z,4.92
2023-02-19T16:50:21.010Z,4.91
2023-02-19T16:53:00.038Z,4.90
2023-02-19T16:55:28.625Z,4.89
2023-02-19T16:57:57.110Z,4.88
2023-02-19T17:00:27.330Z,4.86
2023-02-19T17:02:56.914Z,4.84
2023-02-19T17:05:26.545Z,4.84
2023-02-19T17:07:54.720Z,4.83
2023-02-19T17:10:26.481Z,4.84
2023-02-19T17:12:55.371Z,4.86
2023-02-19T17:15:23.838Z,4.88
2023-02-19T17:17:52.247Z,4.87
2023-02-19T17:20:22.964Z,4.87
2023-02-19T17:22:51.137Z,4.87
2023-02-19T17:25:19.412Z,4.88
2023-02-19T17:27:49.963Z,4.87
2023-02-19T17:30:26.443Z,4.85
2023-02-19T17:32:54.893Z,4.86
2023-02-19T17:35:23.272Z,4.82
2023-02-19T17:37:53.371Z,4.82
2023-02-19T17:40:32.769Z,4.80
2023-02-19T17:43:02.253Z,4.79
2023-02-19T17:45:33.721Z,4.74
2023-02-19T17:48:02.265Z,4.70
2023-02-19T17:50:32.088Z,4.69
2023-02-19T17:53:00.767Z,4.66
2023-02-19T17:55:29.247Z,4.63
2023-02-19T17:57:57.832Z,4.61
2023-02-19T18:00:27.819Z,4.58
2023-02-19T18:02:57.934Z,4.57
2023-02-19T18:05:26.461Z,4.57
2023-02-19T18:07:54.495Z,4.54
2023-02-19T18:10:23.738Z,4.52
2023-02-19T18:12:52.182Z,4.52
2023-02-19T18:15:26.888Z,4.51
2023-02-19T18:17:55.830Z,4.48
2023-02-19T18:20:27.294Z,4.45
2023-02-19T18:22:56.025Z,4.43
2023-02-19T18:25:24.547Z,4.42
2023-02-19T18:27:53.236Z,4.39
2023-02-19T18:30:22.887Z,4.33
2023-02-19T18:32:52.371Z,4.30
2023-02-19T18:35:21.039Z,4.29
2023-02-19T18:37:52.898Z,4.27
2023-02-19T18:40:22.297Z,4.26
2023-02-19T18:42:50.623Z,4.25
2023-02-19T18:45:18.774Z,4.23
2023-02-19T18:47:48.257Z,4.21
2023-02-19T18:50:18.482Z,4.18
2023-02-19T18:52:47.262Z,4.15
2023-02-19T18:55:15.337Z,4.13
2023-02-19T18:57:44.362Z,4.08
2023-02-19T19:00:25.553Z,4.06
2023-02-19T19:02:56.658Z,4.02
2023-02-19T19:05:25.651Z,4.00
2023-02-19T19:07:55.449Z,3.97
2023-02-19T19:10:25.588Z,3.95
2023-02-19T19:12:54.526Z,3.93
2023-02-19T19:15:22.749Z,3.90
2023-02-19T19:17:51.142Z,3.87
2023-02-19T19:20:20.746Z,3.85
2023-02-19T19:22:50.695Z,3.81
2023-02-19T19:25:19.865Z,3.75
2023-02-19T19:27:50.385Z,3.71
2023-02-19T19:30:20.211Z,3.69
2023-02-19T19:32:49.906Z,3.66
2023-02-19T19:35:18.539Z,3.63
2023-02-19T19:37:46.916Z,3.61
2023-02-19T19:40:18.208Z,3.57
2023-02-19T19:42:46.604Z,3.53
2023-02-19T19:45:15.715Z,3.49
2023-02-19T19:47:43.874Z,3.46
2023-02-19T19:50:14.604Z,3.41
2023-02-19T19:52:43.406Z,3.36
2023-02-19T19:55:11.552Z,3.30
2023-02-19T19:57:40.986Z,3.24
2023-02-19T20:00:16.215Z,3.19
2023-02-19T20:02:46.593Z,3.17
2023-02-19T20:05:17.890Z,3.13
2023-02-19T20:07:46.281Z,3.13
2023-02-19T20:10:14.742Z,3.14
2023-02-19T20:12:44.773Z,3.15
2023-02-19T20:15:13.651Z,3.15
2023-02-19T20:17:44.180Z,3.16
2023-02-19T20:20:12.766Z,3.16
2023-02-19T20:22:44.725Z,3.18
2023-02-19T20:25:13.141Z,3.19
2023-02-19T20:27:41.500Z,3.17
2023-02-19T20:30:11.513Z,3.16
2023-02-19T20:32:39.880Z,3.15
2023-02-19T20:35:09.206Z,3.16
2023-02-19T20:37:39.119Z,3.14
2023-02-19T20:40:07.940Z,3.12
2023-02-19T20:42:36.286Z,3.08
2023-02-19T20:45:08.434Z,3.04
2023-02-19T20:47:39.490Z,3.00
2023-02-19T20:50:10.456Z,2.96
2023-02-19T20:52:39.255Z,2.92
2023-02-19T20:55:08.195Z,2.90
2023-02-19T20:57:37.915Z,2.87
2023-02-19T21:00:06.752Z,2.84
2023-02-19T21:02:35.828Z,2.80
2023-02-19T21:05:04.585Z,2.78
2023-02-19T21:07:33.479Z,2.78
2023-02-19T21:10:01.956Z,2.72
2023-02-19T21:12:34.843Z,2.68
2023-02-19T21:15:04.754Z,2.64
2023-02-19T21:17:33.133Z,2.60
2023-02-19T21:20:01.717Z,2.54
2023-02-19T21:22:30.207Z,2.48
2023-02-19T21:25:00.990Z,2.44
2023-02-19T21:27:30.242Z,2.40
2023-02-19T21:29:58.433Z,2.37
2023-02-19T21:32:27.362Z,2.34
2023-02-19T21:34:55.684Z,2.32
2023-02-19T21:37:23.853Z,2.30
2023-02-19T21:39:52.564Z,2.28
2023-02-19T21:42:20.792Z,2.26
2023-02-19T21:44:49.506Z,2.22
2023-02-19T21:47:17.645Z,2.19
2023-02-19T21:49:45.958Z,2.17
2023-02-19T21:52:14.333Z,2.13
2023-02-19T21:54:43.123Z,2.09
2023-02-19T21:57:11.806Z,2.12
2023-02-19T21:59:41.832Z,2.21
2023-02-19T22:02:10.509Z,2.27
2023-02-19T22:04:39.707Z,2.34
2023-02-19T22:07:07.989Z,2.36
2023-02-19T22:09:38.429Z,2.34
2023-02-19T22:12:06.688Z,2.31
2023-02-19T22:14:37.713Z,2.26
2023-02-19T22:17:06.020Z,2.19
2023-02-19T22:19:34.235Z,2.15
2023-02-19T22:22:02.558Z,2.09
2023-02-19T22:24:32.757Z,2.04
2023-02-19T22:27:01.652Z,2.00
2023-02-19T22:29:30.258Z,1.96
2023-02-19T22:31:58.537Z,1.91
2023-02-19T22:34:26.811Z,1.88
2023-02-19T22:36:58.158Z,1.85
2023-02-19T22:39:44.467Z,1.81
2023-02-19T22:42:12.632Z,1.76
2023-02-19T22:44:43.276Z,1.74
2023-02-19T22:47:11.328Z,1.71
2023-02-19T22:49:42.087Z,1.73
2023-02-19T22:52:11.993Z,1.80
2023-02-19T22:54:41.057Z,1.88
2023-02-19T22:57:09.512Z,1.90
2023-02-19T22:59:38.160Z,1.89
2023-02-19T23:02:06.425Z,1.87
2023-02-19T23:04:35.252Z,1.85
2023-02-19T23:07:03.442Z,1.83
2023-02-19T23:09:31.568Z,1.77
2023-02-19T23:12:09.908Z,1.71
2023-02-19T23:14:38.780Z,1.67
2023-02-19T23:17:07.777Z,1.63
2023-02-19T23:19:39.216Z,1.59
2023-02-19T23:22:07.910Z,1.54
2023-02-19T23:24:36.186Z,1.52
2023-02-19T23:27:04.764Z,1.49
2023-02-19T23:29:32.944Z,1.46
2023-02-19T23:32:01.080Z,1.45
2023-02-19T23:34:29.602Z,1.43
2023-02-19T23:37:02.395Z,1.42
2023-02-19T23:39:31.115Z,1.40
2023-02-19T23:42:02.267Z,1.37
2023-02-19T23:44:31.198Z,1.34
2023-02-19T23:46:59.679Z,1.32
2023-02-19T23:49:28.056Z,1.30
2023-02-19T23:51:56.335Z,1.28
2023-02-19T23:54:24.496Z,1.25
2023-02-19T23:56:53.199Z,1.22
2023-02-19T23:59:22.035Z,1.22
